»·PEaware :: N4736T KSMX-KLAX

N4736T :: KSMX-KLAX

FLIGHT INFORMATION

Flight Status: Arrived
Operator: Privately registered:
United States
More flights under this callsign
Pilot: Michael F. (9548)
Aircraft: BEECH AIRCRAFT SUPER KING AIR COMMUTER
(BE20)
More flights by this aircraft type
Origin: KSMX Santa Maria Pub/Capt Hancock
United States
Destination: KLAX Los Angeles Intl
United States
More flights between these airports :: More routes between these airports
Route: +RZS VTU SADDE7
File this flight plan on PilotEdge
Remarks:
Altitude:
(Current/Filed)
11,000ft
Speed:
(Current/Filed)
220kts
Departed: 13-Sep-17 08:38 AM
Arrived: 13-Sep-17 10:30 AM
Distance/Time
Traveled:
117nm/1:52
Distance/Time
To Go:
Arrived

Flight Plot

Page will automatically refresh every two minutes.

Flight plan parsing failed; only flown route is shown


Map Options




Map Legend


Flown Route
Filed Route
Departure Airport
Arrival Airport
Navaid (VOR, NDB)
Fix

Horizontal Profiles

Position Reports

Time Latitude Longitude Heading Altitude Ground
Speed
13-Sep-17 08:33 34.896809 -120.445866 273 265ft 0kts
13-Sep-17 08:34 34.896809 -120.445866 273 265ft 0kts
13-Sep-17 08:35 34.896809 -120.445866 273 265ft 0kts
13-Sep-17 08:36 34.896809 -120.445866 273 265ft 0kts
13-Sep-17 08:37 34.896809 -120.445866 273 265ft 0kts
13-Sep-17 08:38 34.895101 -120.444784 157 265ft 26kts
13-Sep-17 08:39 34.893864 -120.445399 189 265ft 0kts
13-Sep-17 08:40 34.893864 -120.445399 189 265ft 0kts
13-Sep-17 08:41 34.893153 -120.446151 316 265ft 18kts
13-Sep-17 08:42 34.902463 -120.457157 312 439ft 152kts
13-Sep-17 08:43 34.921907 -120.472160 357 938ft 212kts
13-Sep-17 08:44 34.941131 -120.455245 69 1426ft 225kts
13-Sep-17 08:45 34.935365 -120.419760 113 2033ft 228kts
13-Sep-17 08:46 34.922219 -120.382616 114 2845ft 224kts
13-Sep-17 08:47 34.909705 -120.346970 114 3654ft 222kts
13-Sep-17 08:48 34.897093 -120.311974 121 4458ft 220kts
13-Sep-17 08:49 34.880145 -120.281094 128 5253ft 218kts
13-Sep-17 08:50 34.861866 -120.250865 129 5923ft 231kts
13-Sep-17 08:51 34.843874 -120.220834 129 6414ft 240kts
13-Sep-17 08:52 34.824366 -120.187942 129 6924ft 243kts
13-Sep-17 08:53 34.810695 -120.164719 128 7275ft 244kts
13-Sep-17 08:54 34.794732 -120.137458 129 7682ft 243kts
13-Sep-17 08:55 34.774458 -120.104801 131 8181ft 242kts
13-Sep-17 08:56 34.752920 -120.074062 134 8680ft 239kts
13-Sep-17 08:57 34.732114 -120.044510 134 9506ft 228kts
13-Sep-17 08:58 34.710506 -120.017339 142 9993ft 229kts
13-Sep-17 08:59 34.686711 -119.994737 147 10472ft 228kts
13-Sep-17 09:00 34.664617 -119.972012 140 10929ft 229kts
13-Sep-17 09:01 34.643989 -119.946661 138 11391ft 228kts
13-Sep-17 09:02 34.622410 -119.917515 134 11894ft 228kts
13-Sep-17 09:03 34.602091 -119.891143 138 12101ft 237kts
13-Sep-17 09:04 34.581123 -119.864997 138 11227ft 231kts
13-Sep-17 09:05 34.562963 -119.841999 138 11006ft 209kts
13-Sep-17 09:06 34.546041 -119.820978 138 11013ft 235kts
13-Sep-17 09:07 34.524971 -119.795247 138 11009ft 254kts
13-Sep-17 09:08 34.501621 -119.765386 128 10993ft 267kts
13-Sep-17 09:09 34.496224 -119.737059 91 10995ft 277kts
13-Sep-17 09:10 34.485173 -119.697425 141 10986ft 275kts
13-Sep-17 09:11 34.456841 -119.667623 123 10989ft 270kts
13-Sep-17 09:12 34.439821 -119.635777 122 10991ft 269kts
13-Sep-17 09:13 34.423649 -119.607845 122 10991ft 270kts
13-Sep-17 09:14 34.410510 -119.585236 123 10993ft 272kts
13-Sep-17 09:15 34.400884 -119.568606 122 10991ft 272kts
13-Sep-17 09:16 34.393636 -119.556080 123 10991ft 273kts
13-Sep-17 09:17 34.387197 -119.545013 123 10990ft 273kts
13-Sep-17 09:18 34.380423 -119.533364 123 10991ft 273kts
13-Sep-17 09:20 34.363372 -119.503915 123 10991ft 274kts
13-Sep-17 09:21 34.344260 -119.470680 123 10991ft 274kts
13-Sep-17 09:22 34.337826 -119.459556 123 10991ft 274kts
13-Sep-17 09:23 34.331677 -119.448853 122 10991ft 274kts
13-Sep-17 09:24 34.326946 -119.440625 123 10990ft 274kts
13-Sep-17 09:25 34.321556 -119.431266 123 10991ft 274kts
13-Sep-17 09:26 34.318089 -119.425263 122 10989ft 274kts
13-Sep-17 09:27 34.312374 -119.415426 123 10991ft 274kts
13-Sep-17 09:28 34.308020 -119.407917 123 10990ft 274kts
13-Sep-17 09:29 34.304898 -119.402378 121 10990ft 274kts
13-Sep-17 09:30 34.299481 -119.392494 121 10989ft 274kts
13-Sep-17 09:31 34.293897 -119.382098 121 10990ft 274kts
13-Sep-17 09:32 34.287687 -119.370454 121 10991ft 273kts
13-Sep-17 09:33 34.277250 -119.349989 122 10988ft 275kts
13-Sep-17 09:34 34.262725 -119.316336 122 10989ft 275kts
13-Sep-17 09:35 34.246510 -119.282200 125 10989ft 274kts
13-Sep-17 09:36 34.229354 -119.247937 125 10990ft 274kts
13-Sep-17 09:37 34.213189 -119.215667 125 10991ft 274kts
13-Sep-17 09:38 34.196875 -119.183069 125 10992ft 274kts
13-Sep-17 09:39 34.181856 -119.153047 125 10993ft 274kts
13-Sep-17 09:40 34.163099 -119.115719 127 10993ft 273kts
13-Sep-17 09:41 34.146591 -119.093355 137 10996ft 269kts
13-Sep-17 09:42 34.129549 -119.070103 134 10997ft 270kts
13-Sep-17 09:43 34.114975 -119.046831 120 10972ft 276kts
13-Sep-17 09:44 34.106625 -119.019088 112 11000ft 277kts
13-Sep-17 09:45 34.098789 -118.990067 112 10999ft 277kts
13-Sep-17 09:46 34.090806 -118.959947 112 10998ft 277kts
13-Sep-17 09:47 34.082482 -118.928504 112 10998ft 277kts
13-Sep-17 09:48 34.073730 -118.895541 113 10997ft 277kts
13-Sep-17 09:49 34.066319 -118.867727 113 10997ft 277kts
13-Sep-17 09:50 34.059302 -118.841426 113 10997ft 276kts
13-Sep-17 09:51 34.052443 -118.815758 113 10997ft 276kts
13-Sep-17 09:52 34.045545 -118.789994 114 10997ft 275kts
13-Sep-17 09:53 34.038917 -118.763990 107 10987ft 278kts
13-Sep-17 09:54 34.036008 -118.737289 102 10997ft 280kts
13-Sep-17 09:55 34.033518 -118.710767 102 10997ft 280kts
13-Sep-17 09:56 34.031063 -118.684285 102 10997ft 279kts
13-Sep-17 09:57 34.028801 -118.659261 102 10768ft 262kts
13-Sep-17 09:58 34.027070 -118.638860 102 10470ft 236kts
13-Sep-17 09:59 34.025690 -118.622646 102 10207ft 217kts
13-Sep-17 10:00 34.024421 -118.607720 103 9909ft 205kts
13-Sep-17 10:01 34.023176 -118.593987 103 9549ft 203kts
13-Sep-17 10:02 34.021380 -118.575776 103 9118ft 207kts
13-Sep-17 10:03 34.019510 -118.558074 103 8734ft 220kts
13-Sep-17 10:04 34.017465 -118.539096 102 8365ft 233kts
13-Sep-17 10:05 34.015628 -118.521843 101 8050ft 247kts
13-Sep-17 10:06 34.013899 -118.505167 101 7759ft 257kts
13-Sep-17 10:07 34.012502 -118.490827 100 7330ft 252kts
13-Sep-17 10:08 34.011394 -118.479013 100 7077ft 236kts
13-Sep-17 10:09 34.010296 -118.466514 100 6993ft 212kts
13-Sep-17 10:10 34.009984 -118.444628 83 6940ft 162kts
13-Sep-17 10:11 34.013155 -118.412568 82 7032ft 207kts
13-Sep-17 10:12 34.017259 -118.372073 82 7018ft 241kts
13-Sep-17 10:13 34.021317 -118.332459 82 6982ft 228kts
13-Sep-17 10:14 34.024428 -118.302406 83 6964ft 195kts
13-Sep-17 10:15 34.027742 -118.270002 83 6809ft 201kts
13-Sep-17 10:16 34.031421 -118.234495 83 6430ft 214kts
13-Sep-17 10:17 34.035442 -118.195342 83 6034ft 228kts
13-Sep-17 10:18 34.039366 -118.157227 83 5545ft 229kts
13-Sep-17 10:19 34.042665 -118.125232 82 5137ft 229kts
13-Sep-17 10:20 34.045266 -118.086748 104 4966ft 216kts
13-Sep-17 10:21 34.020963 -118.067939 172 4996ft 209kts
13-Sep-17 10:22 33.988843 -118.064234 189 4979ft 223kts
13-Sep-17 10:23 33.969104 -118.094174 252 5001ft 222kts
13-Sep-17 10:24 33.963004 -118.132698 265 4881ft 213kts
13-Sep-17 10:25 33.959063 -118.169802 261 4159ft 211kts
13-Sep-17 10:26 33.955712 -118.205855 263 3238ft 209kts
13-Sep-17 10:27 33.951917 -118.241654 263 2566ft 213kts
13-Sep-17 10:28 33.948255 -118.276465 262 1886ft 199kts
13-Sep-17 10:29 33.945190 -118.309042 261 1413ft 184kts
13-Sep-17 10:30 33.941951 -118.338043 262 938ft 149kts
13-Sep-17 10:31 33.939833 -118.359176 263 558ft 121kts
13-Sep-17 10:32 33.937463 -118.381687 262 232ft 125kts
13-Sep-17 10:33 33.935747 -118.397204 242 129ft 47kts
13-Sep-17 10:34 33.934245 -118.401663 102 129ft 22kts

Navigation Log

Ident Type
Flight plan parsing failed, navigation log unavailable